Time;durP1;ratioP1;P1;durP2;ratioP2;P2;SDS_P1;SDS_P2;PMS_P1;PMS_P2;Temp;Humidity;BMP_temperature;BMP_pressure;BME280_temperature;BME280_humidity;BME280_pressure;Samples;Min_cycle;Max_cycle;Signal;HPM_P1;HPM_P2
2023/05/20 00:05:32;;;;;;;3.60;1.50;;;12.70;99.90;;;;;;12549611;28;20056;-38
2023/05/20 00:11:35;;;;;;;2.57;1.40;;;12.50;99.90;;;;;;12541530;28;20054;-38
2023/05/20 00:17:37;;;;;;;3.45;1.52;;;12.40;99.90;;;;;;12522426;28;20485;-35
2023/05/20 00:23:40;;;;;;;5.45;1.40;;;12.30;99.90;;;;;;12529241;28;20056;-35
2023/05/20 00:29:43;;;;;;;4.07;1.40;;;12.20;99.90;;;;;;12502399;28;20528;-36
2023/05/20 00:35:46;;;;;;;2.40;1.42;;;12.30;99.90;;;;;;12526902;28;20417;-36
2023/05/20 00:41:59;;;;;;;2.42;1.38;;;12.40;99.90;;;;;;12504526;28;20102;-35
2023/05/20 00:48:03;;;;;;;3.80;1.40;;;12.40;99.90;;;;;;12526076;28;20044;-35
2023/05/20 00:54:06;;;;;;;;;;;12.30;99.90;;;;;;12542768;28;20508;-34
2023/05/20 01:00:13;;;;;;;5.38;1.63;;;12.20;99.90;;;;;;12522205;28;19921;-35
2023/05/20 01:06:16;;;;;;;2.70;1.33;;;12.00;99.90;;;;;;12554297;28;20124;-35
2023/05/20 01:12:29;;;;;;;2.90;1.38;;;12.10;99.90;;;;;;12531212;28;20417;-35
2023/05/20 01:18:33;;;;;;;4.97;1.70;;;12.20;99.90;;;;;;12537236;28;20390;-35
2023/05/20 01:24:36;;;;;;;3.42;1.50;;;12.10;99.90;;;;;;12540014;28;20072;-35
2023/05/20 01:30:49;;;;;;;4.63;1.40;;;11.80;99.90;;;;;;12545816;28;20088;-35
2023/05/20 01:36:54;;;;;;;2.60;1.40;;;12.10;99.90;;;;;;12520153;28;20052;-35
2023/05/20 01:42:59;;;;;;;4.63;1.60;;;11.90;99.90;;;;;;12519022;28;20037;-35
2023/05/20 01:49:01;;;;;;;3.25;1.65;;;11.90;99.90;;;;;;12532410;28;20045;-35
2023/05/20 01:55:05;;;;;;;3.30;1.60;;;11.90;99.90;;;;;;12524990;28;20425;-35
2023/05/20 02:01:08;;;;;;;4.60;1.67;;;11.80;99.90;;;;;;12528988;28;20056;-34
2023/05/20 02:07:11;;;;;;;7.93;1.70;;;11.80;99.90;;;;;;12539716;28;20048;-36
2023/05/20 02:13:14;;;;;;;4.53;1.70;;;11.80;99.90;;;;;;12545311;28;20100;-36
2023/05/20 02:19:22;;;;;;;3.28;1.58;;;11.60;99.90;;;;;;12537244;28;20061;-35
2023/05/20 02:25:25;;;;;;;4.25;1.50;;;12.00;99.90;;;;;;12545063;28;20046;-35
2023/05/20 02:31:28;;;;;;;2.63;1.50;;;12.00;99.90;;;;;;12544401;28;20140;-37
2023/05/20 02:37:31;;;;;;;2.90;1.60;;;11.60;99.90;;;;;;12538514;28;20364;-34
2023/05/20 02:43:35;;;;;;;3.10;1.83;;;11.10;99.90;;;;;;12542650;28;20111;-34
2023/05/20 02:49:38;;;;;;;4.40;1.80;;;10.80;99.90;;;;;;12532630;28;20045;-35
2023/05/20 02:55:40;;;;;;;2.67;1.52;;;10.60;99.90;;;;;;12547747;28;20037;-35
2023/05/20 03:01:44;;;;;;;4.83;1.80;;;10.60;99.90;;;;;;12549249;28;20135;-34
2023/05/20 03:07:48;;;;;;;6.68;2.95;;;10.40;99.90;;;;;;12541402;28;20045;-35
2023/05/20 03:13:53;;;;;;;3.90;1.75;;;10.20;99.90;;;;;;12557713;28;20076;-35
2023/05/20 03:19:56;;;;;;;4.13;1.77;;;10.10;99.90;;;;;;12551433;28;20505;-35
2023/05/20 03:26:00;;;;;;;4.88;1.83;;;9.90;99.90;;;;;;12518140;28;20501;-35
2023/05/20 03:32:03;;;;;;;3.70;2.00;;;9.90;99.90;;;;;;12533062;28;20050;-35
2023/05/20 03:38:08;;;;;;;4.00;2.00;;;9.80;99.90;;;;;;12561067;28;20056;-35
2023/05/20 03:44:11;;;;;;;5.43;2.00;;;9.80;99.90;;;;;;12566293;28;20045;-35
2023/05/20 03:50:17;;;;;;;4.30;2.00;;;9.70;99.90;;;;;;12556102;28;20096;-35
2023/05/20 03:56:21;;;;;;;3.28;1.63;;;9.80;99.90;;;;;;12557965;28;20049;-36
2023/05/20 04:02:26;;;;;;;5.47;1.60;;;9.80;99.90;;;;;;12545054;28;20678;-36
2023/05/20 04:08:30;;;;;;;3.17;1.60;;;9.90;99.90;;;;;;12532363;28;20180;-35
2023/05/20 04:14:33;;;;;;;3.20;1.80;;;9.90;99.90;;;;;;12534221;28;20532;-35
2023/05/20 04:20:37;;;;;;;3.10;1.55;;;9.70;99.90;;;;;;12545726;28;20041;-35
2023/05/20 04:26:40;;;;;;;6.40;1.60;;;10.00;99.90;;;;;;12535032;28;20049;-36
2023/05/20 04:32:43;;;;;;;3.97;1.85;;;9.70;99.90;;;;;;12559748;28;20049;-35
2023/05/20 04:38:47;;;;;;;4.40;1.77;;;9.80;99.90;;;;;;12528965;28;20048;-35
2023/05/20 04:44:50;;;;;;;2.83;1.55;;;9.60;99.90;;;;;;12545930;28;20064;-35
2023/05/20 04:50:55;;;;;;;3.00;1.58;;;9.80;99.90;;;;;;12520708;28;20049;-36
2023/05/20 04:56:59;;;;;;;5.45;1.73;;;10.30;99.90;;;;;;12539932;28;20041;-35
2023/05/20 05:03:06;;;;;;;2.95;1.38;;;11.20;99.90;;;;;;12550507;28;20048;-35
2023/05/20 05:09:09;;;;;;;3.88;1.60;;;10.80;99.90;;;;;;12554253;28;20068;-35
2023/05/20 05:15:13;;;;;;;6.28;1.75;;;10.40;99.90;;;;;;12519008;28;20409;-35
2023/05/20 05:21:21;;;;;;;5.17;1.67;;;10.80;99.90;;;;;;12528536;28;20056;-36
2023/05/20 05:27:24;;;;;;;2.60;1.50;;;11.20;99.90;;;;;;12530915;28;20051;-36
2023/05/20 05:33:28;;;;;;;4.60;1.55;;;10.90;99.90;;;;;;12543448;28;20064;-35
2023/05/20 05:39:31;;;;;;;3.35;1.80;;;11.10;99.90;;;;;;12550532;28;20060;-35
2023/05/20 05:45:34;;;;;;;2.70;1.40;;;10.80;99.90;;;;;;12505759;28;20194;-35
2023/05/20 05:51:37;;;;;;;3.55;1.48;;;10.80;99.90;;;;;;12548115;28;20485;-35
2023/05/20 05:57:40;;;;;;;2.42;1.20;;;10.80;99.90;;;;;;12557024;28;20067;-35
2023/05/20 06:03:43;;;;;;;3.15;1.80;;;10.80;99.90;;;;;;12520431;28;20191;-35
2023/05/20 06:09:46;;;;;;;4.60;1.60;;;10.90;99.90;;;;;;12537157;28;20045;-35
2023/05/20 06:15:50;;;;;;;4.97;1.40;;;11.20;99.90;;;;;;12524337;28;20049;-36
2023/05/20 06:21:57;;;;;;;3.47;1.63;;;11.30;99.90;;;;;;12543542;28;20052;-35
2023/05/20 06:28:01;;;;;;;4.28;1.60;;;11.70;99.90;;;;;;12532475;28;20049;-36
2023/05/20 06:34:04;;;;;;;3.67;1.92;;;11.80;99.90;;;;;;12538205;28;20148;-36
2023/05/20 06:40:08;;;;;;;2.80;1.48;;;11.80;99.90;;;;;;12534564;28;20048;-36
2023/05/20 06:46:11;;;;;;;5.00;1.90;;;12.10;99.90;;;;;;12479549;28;20044;-36
2023/05/20 06:52:29;;;;;;;5.90;1.90;;;12.30;99.90;;;;;;12535295;28;20417;-35
2023/05/20 06:58:32;;;;;;;6.35;2.08;;;12.30;99.90;;;;;;12541381;28;20056;-36
2023/05/20 07:04:35;;;;;;;4.83;1.93;;;12.60;99.90;;;;;;12556610;28;20052;-36
2023/05/20 07:10:38;;;;;;;4.28;1.90;;;12.80;99.90;;;;;;12553622;28;20056;-37
2023/05/20 07:16:41;;;;;;;3.63;2.00;;;13.10;99.90;;;;;;12532459;28;20052;-36
2023/05/20 07:22:47;;;;;;;4.38;1.90;;;13.20;99.90;;;;;;12562569;28;20072;-36
2023/05/20 07:28:50;;;;;;;4.63;2.00;;;13.70;99.90;;;;;;12550545;28;20049;-36
2023/05/20 07:34:53;;;;;;;4.90;1.80;;;13.70;99.90;;;;;;12556295;28;20524;-36
2023/05/20 07:40:57;;;;;;;3.93;2.23;;;13.70;99.90;;;;;;12529330;28;20493;-36
2023/05/20 07:47:00;;;;;;;4.68;1.83;;;14.00;99.90;;;;;;12535152;28;20641;-36
2023/05/20 07:53:05;;;;;;;4.10;2.00;;;14.30;99.90;;;;;;12539538;28;20043;-36
2023/05/20 07:59:08;;;;;;;5.88;1.80;;;14.50;99.90;;;;;;12542096;28;20062;-36
2023/05/20 08:05:11;;;;;;;2.92;1.63;;;14.60;99.90;;;;;;12525547;28;20405;-36
2023/05/20 08:11:13;;;;;;;4.72;1.73;;;14.80;99.90;;;;;;12544740;28;20045;-36
2023/05/20 08:17:16;;;;;;;3.30;1.58;;;14.70;99.90;;;;;;12546971;28;20052;-36
2023/05/20 08:23:20;;;;;;;3.87;1.80;;;14.90;99.90;;;;;;12538881;28;20041;-37
2023/05/20 08:29:23;;;;;;;9.17;1.60;;;15.20;99.90;;;;;;12533554;28;20041;-36
2023/05/20 08:35:26;;;;;;;4.33;1.80;;;15.10;99.90;;;;;;12515079;28;20048;-36
2023/05/20 08:41:30;;;;;;;5.50;1.50;;;15.20;99.90;;;;;;12535462;28;20404;-36
2023/05/20 08:47:32;;;;;;;3.27;1.70;;;15.20;99.90;;;;;;12539532;28;20127;-37
2023/05/20 08:53:35;;;;;;;3.78;1.40;;;15.60;99.90;;;;;;12533072;28;20060;-37
2023/05/20 08:59:43;;;;;;;2.47;1.50;;;15.80;99.90;;;;;;12535054;28;20136;-37
2023/05/20 09:05:47;;;;;;;3.88;1.85;;;15.80;99.90;;;;;;12530471;28;20083;-36
2023/05/20 09:11:51;;;;;;;3.53;1.70;;;16.00;99.90;;;;;;12540532;28;20063;-36
2023/05/20 09:17:54;;;;;;;3.80;1.40;;;16.00;99.90;;;;;;12513040;28;20613;-37
2023/05/20 09:24:01;;;;;;;6.13;1.87;;;16.00;99.90;;;;;;12542043;28;20040;-37
2023/05/20 09:30:11;;;;;;;9.18;1.95;;;16.00;99.90;;;;;;12543136;28;20048;-36
2023/05/20 09:36:16;;;;;;;3.60;1.50;;;16.10;99.90;;;;;;12514198;28;20663;-37
2023/05/20 09:42:25;;;;;;;;;;;16.30;99.90;;;;;;12543700;28;20049;-37
2023/05/20 09:48:30;;;;;;;3.20;1.67;;;16.00;99.90;;;;;;12528003;28;20463;-37
2023/05/20 09:54:36;;;;;;;4.97;1.73;;;16.10;99.90;;;;;;12521937;28;20527;-37
2023/05/20 10:00:39;;;;;;;3.65;1.98;;;15.70;99.90;;;;;;12525541;28;20045;-37
2023/05/20 10:07:11;;;;;;;6.38;2.60;;;15.20;99.90;;;;;;12540429;28;20048;-36
2023/05/20 10:13:28;;;;;;;3.33;2.03;;;15.20;99.90;;;;;;12546301;28;20094;-36
2023/05/20 10:19:33;;;;;;;4.47;2.30;;;15.30;99.90;;;;;;12549494;28;20049;-36
2023/05/20 10:25:35;;;;;;;;;;;15.20;99.90;;;;;;12545328;28;20517;-36
2023/05/20 10:31:45;;;;;;;4.95;2.72;;;15.40;99.90;;;;;;12545572;28;19951;-36
2023/05/20 10:37:49;;;;;;;8.02;2.92;;;16.00;99.90;;;;;;12543806;28;20048;-36
2023/05/20 10:44:05;;;;;;;8.75;2.88;;;15.50;99.90;;;;;;12528141;28;20378;-36
2023/05/20 10:50:26;;;;;;;7.38;3.20;;;15.50;99.90;;;;;;12542443;28;20092;-36
2023/05/20 10:56:29;;;;;;;8.68;3.30;;;15.60;99.90;;;;;;12548687;28;20127;-37
2023/05/20 11:02:33;;;;;;;5.57;2.60;;;16.40;99.90;;;;;;12547483;28;20128;-36
2023/05/20 11:08:37;;;;;;;5.30;2.47;;;15.70;99.90;;;;;;12545396;28;20045;-36
2023/05/20 11:14:40;;;;;;;4.57;2.40;;;16.10;99.90;;;;;;12542727;28;20494;-36
2023/05/20 11:20:49;;;;;;;3.07;2.10;;;16.60;99.90;;;;;;12551816;28;20052;-35
2023/05/20 11:26:54;;;;;;;4.22;2.05;;;15.90;99.90;;;;;;12550213;28;20089;-35
2023/05/20 11:32:58;;;;;;;3.90;1.67;;;15.60;99.90;;;;;;12543245;28;20103;-36
2023/05/20 11:39:02;;;;;;;3.30;1.70;;;15.70;99.90;;;;;;12537697;28;20130;-36
2023/05/20 11:45:06;;;;;;;2.90;1.67;;;15.70;99.90;;;;;;12552628;28;20520;-36
2023/05/20 11:51:09;;;;;;;6.20;2.05;;;15.80;99.90;;;;;;12551735;28;20049;-36
2023/05/20 11:57:13;;;;;;;2.90;1.85;;;15.90;99.90;;;;;;12522695;28;20051;-36
2023/05/20 12:03:16;;;;;;;5.30;2.17;;;16.20;99.90;;;;;;12532343;28;20041;-37
2023/05/20 12:09:19;;;;;;;;;;;16.80;99.90;;;;;;12532668;28;20041;-36
2023/05/20 12:15:23;;;;;;;5.88;1.90;;;16.30;99.90;;;;;;12523247;28;19927;-37
2023/05/20 12:21:28;;;;;;;5.03;2.17;;;16.60;99.90;;;;;;12545116;28;20417;-36
2023/05/20 12:27:32;;;;;;;3.53;1.80;;;16.00;99.90;;;;;;12554654;28;20048;-36
2023/05/20 12:33:36;;;;;;;4.32;1.75;;;16.00;99.90;;;;;;12529599;28;20180;-36
2023/05/20 12:39:39;;;;;;;3.10;1.90;;;15.90;99.90;;;;;;12546994;28;20517;-36
2023/05/20 12:45:42;;;;;;;4.13;2.30;;;16.20;99.90;;;;;;12545851;28;20552;-37
2023/05/20 12:51:45;;;;;;;6.35;1.65;;;16.30;99.90;;;;;;12548393;28;20053;-36
2023/05/20 12:57:49;;;;;;;4.28;2.28;;;16.00;99.90;;;;;;12530809;28;20049;-36
2023/05/20 13:03:58;;;;;;;3.17;2.13;;;16.00;99.90;;;;;;12545089;28;20053;-36
2023/05/20 13:10:01;;;;;;;4.53;2.05;;;16.10;99.90;;;;;;12539199;28;20041;-36
2023/05/20 13:16:05;;;;;;;4.35;2.22;;;16.80;99.90;;;;;;12514246;28;20056;-36
2023/05/20 13:22:08;;;;;;;2.85;1.98;;;17.10;99.90;;;;;;12530040;28;20075;-36
2023/05/20 13:28:15;;;;;;;3.47;2.10;;;17.60;99.90;;;;;;12513385;28;20041;-36
2023/05/20 13:34:19;;;;;;;3.50;2.05;;;17.50;99.90;;;;;;12524658;28;20041;-37
2023/05/20 13:40:23;;;;;;;3.92;2.40;;;17.50;99.90;;;;;;12551572;28;20044;-37
2023/05/20 13:46:26;;;;;;;4.87;1.97;;;16.90;99.90;;;;;;12537184;28;20402;-37
2023/05/20 13:52:29;;;;;;;6.65;2.15;;;16.50;99.90;;;;;;12518790;28;20163;-36
2023/05/20 13:58:32;;;;;;;5.95;2.42;;;16.90;99.90;;;;;;12524878;28;20128;-36
2023/05/20 14:04:38;;;;;;;4.05;2.60;;;17.10;99.90;;;;;;12541573;28;20111;-36
2023/05/20 14:10:41;;;;;;;4.07;2.13;;;16.90;99.90;;;;;;12551178;28;20387;-35
2023/05/20 14:16:46;;;;;;;5.90;2.70;;;17.10;99.90;;;;;;12479010;28;20137;-35
2023/05/20 14:22:51;;;;;;;;;;;16.70;99.90;;;;;;12494562;28;20068;-35
2023/05/20 14:28:56;;;;;;;6.82;2.63;;;17.00;99.90;;;;;;12511629;28;19964;-35
2023/05/20 14:35:00;;;;;;;6.22;2.65;;;16.60;99.90;;;;;;12504385;28;20410;-35
2023/05/20 14:41:06;;;;;;;4.25;2.78;;;16.40;99.90;;;;;;12489522;28;20053;-35
2023/05/20 14:47:09;;;;;;;5.70;3.25;;;16.10;99.90;;;;;;12486350;28;20049;-36
2023/05/20 14:53:12;;;;;;;5.97;3.20;;;16.10;99.90;;;;;;12507565;28;20132;-39
2023/05/20 14:59:15;;;;;;;5.20;3.17;;;16.40;99.90;;;;;;12493464;28;20080;-35
2023/05/20 15:05:18;;;;;;;4.65;3.28;;;16.30;99.90;;;;;;12503072;28;20040;-35
2023/05/20 15:11:21;;;;;;;8.45;3.55;;;16.60;99.90;;;;;;12512287;28;20046;-36
2023/05/20 15:17:26;;;;;;;5.55;3.92;;;16.40;99.90;;;;;;12541273;28;20133;-38
2023/05/20 15:23:35;;;;;;;7.70;3.53;;;16.40;99.90;;;;;;12514858;28;20094;-39
2023/05/20 15:29:42;;;;;;;5.85;3.25;;;16.30;99.90;;;;;;12532616;28;20080;-38
2023/05/20 15:35:47;;;;;;;8.32;4.15;;;16.00;99.90;;;;;;12521090;28;20084;-38
2023/05/20 15:41:52;;;;;;;5.18;3.40;;;15.80;99.90;;;;;;12540693;28;20077;-37
2023/05/20 15:47:57;;;;;;;9.15;3.80;;;15.80;99.90;;;;;;12526535;28;20152;-38
2023/05/20 15:54:01;;;;;;;6.70;3.63;;;15.70;99.90;;;;;;12533076;28;20045;-39
2023/05/20 16:00:09;;;;;;;6.05;3.53;;;15.60;99.90;;;;;;12538927;28;20045;-38
2023/05/20 16:06:14;;;;;;;4.93;3.25;;;15.60;99.90;;;;;;12493403;28;20511;-38
2023/05/20 16:12:21;;;;;;;7.32;3.40;;;15.60;99.90;;;;;;12510531;28;20054;-38
2023/05/20 16:18:28;;;;;;;7.22;3.70;;;15.60;99.90;;;;;;12471763;28;20109;-38
2023/05/20 16:24:37;;;;;;;6.72;3.97;;;15.60;99.90;;;;;;12489516;28;20056;-38
2023/05/20 16:30:45;;;;;;;5.53;3.80;;;15.60;99.90;;;;;;12489737;28;20425;-38
2023/05/20 16:36:51;;;;;;;6.07;4.00;;;15.60;99.90;;;;;;12499261;28;20049;-39
2023/05/20 16:42:56;;;;;;;6.88;3.95;;;15.50;99.90;;;;;;12492668;28;20060;-39
2023/05/20 16:49:03;;;;;;;9.80;4.25;;;15.50;99.90;;;;;;12493135;28;20056;-38
2023/05/20 16:55:12;;;;;;;9.05;4.13;;;15.40;99.90;;;;;;12490799;28;20040;-37
2023/05/20 17:01:20;;;;;;;6.60;4.05;;;15.50;99.90;;;;;;12492628;28;20057;-39
2023/05/20 17:07:28;;;;;;;7.68;3.97;;;15.50;99.90;;;;;;12497648;28;20056;-37
2023/05/20 17:13:40;;;;;;;7.47;4.20;;;15.40;99.90;;;;;;12510305;28;20548;-37
2023/05/20 17:19:46;;;;;;;6.18;4.55;;;15.40;99.90;;;;;;12522652;28;20441;-38
2023/05/20 17:25:49;;;;;;;8.13;4.53;;;15.30;99.90;;;;;;12561044;28;20370;-37
2023/05/20 17:31:52;;;;;;;8.93;4.85;;;15.30;99.90;;;;;;12550710;28;20055;-38
2023/05/20 17:37:55;;;;;;;8.65;4.72;;;15.40;99.90;;;;;;12533409;28;20048;-37
2023/05/20 17:44:00;;;;;;;7.23;4.40;;;15.40;99.90;;;;;;12547095;28;20056;-39
2023/05/20 17:50:04;;;;;;;7.13;4.18;;;15.40;99.90;;;;;;12521319;28;20049;-38
2023/05/20 17:56:07;;;;;;;;;;;15.40;99.90;;;;;;12560340;28;20401;-38
2023/05/20 18:02:11;;;;;;;7.95;4.30;;;15.40;99.90;;;;;;12542731;28;19921;-37
2023/05/20 18:08:14;;;;;;;8.82;4.15;;;15.40;99.90;;;;;;12526819;28;20041;-38
2023/05/20 18:14:21;;;;;;;8.23;4.05;;;15.40;99.90;;;;;;12498693;28;20049;-39
2023/05/20 18:20:28;;;;;;;7.55;4.25;;;15.30;99.90;;;;;;12533862;28;20518;-39
2023/05/20 18:26:32;;;;;;;6.95;4.03;;;15.30;99.90;;;;;;12526642;28;20060;-37
2023/05/20 18:32:37;;;;;;;;;;;15.30;99.90;;;;;;12550736;28;20455;-38
2023/05/20 18:38:41;;;;;;;5.85;3.65;;;15.30;99.90;;;;;;12529171;28;19920;-38
2023/05/20 18:44:45;;;;;;;6.57;3.97;;;15.20;99.90;;;;;;12540929;28;20224;-37
2023/05/20 18:50:57;;;;;;;8.23;4.20;;;15.10;99.90;;;;;;12530747;28;20175;-38
2023/05/20 18:57:04;;;;;;;7.03;4.10;;;15.10;99.90;;;;;;12557514;28;20056;-38
2023/05/20 19:03:13;;;;;;;8.13;4.22;;;15.10;99.90;;;;;;12535149;28;20044;-38
2023/05/20 19:09:16;;;;;;;6.90;3.72;;;15.10;99.90;;;;;;12549835;28;20397;-38
2023/05/20 19:15:22;;;;;;;5.60;3.83;;;15.00;99.90;;;;;;12532773;28;20054;-38
2023/05/20 19:21:32;;;;;;;6.07;3.28;;;15.00;99.90;;;;;;12517679;28;20136;-38
2023/05/20 19:27:41;;;;;;;6.68;3.28;;;14.90;99.90;;;;;;12508039;28;20040;-38
2023/05/20 19:33:52;;;;;;;5.68;3.30;;;14.90;99.90;;;;;;12524944;28;20105;-38
2023/05/20 19:40:01;;;;;;;7.05;3.60;;;14.80;99.90;;;;;;12522754;28;20401;-38
2023/05/20 19:46:08;;;;;;;7.07;3.28;;;14.70;99.90;;;;;;12521624;28;20053;-38
2023/05/20 19:52:17;;;;;;;5.93;3.58;;;14.60;99.90;;;;;;12532492;28;20049;-39
2023/05/20 19:58:26;;;;;;;8.25;3.35;;;14.40;99.90;;;;;;12520788;28;20056;-39
2023/05/20 20:04:32;;;;;;;6.57;3.60;;;14.30;99.90;;;;;;12510599;28;20054;-38
2023/05/20 20:10:39;;;;;;;6.47;3.55;;;14.10;99.90;;;;;;12529611;28;20108;-39
2023/05/20 20:16:45;;;;;;;6.13;3.92;;;14.10;99.90;;;;;;12527107;28;20057;-38
2023/05/20 20:22:50;;;;;;;6.72;3.78;;;13.90;99.90;;;;;;12526247;28;20045;-38
2023/05/20 20:28:53;;;;;;;5.97;3.65;;;13.90;99.90;;;;;;12530542;28;20107;-38
2023/05/20 20:34:56;;;;;;;5.10;3.25;;;13.80;99.90;;;;;;12537943;28;20068;-38
2023/05/20 20:41:02;;;;;;;5.33;3.13;;;13.80;99.90;;;;;;12529800;28;20135;-38
2023/05/20 20:47:06;;;;;;;6.43;3.72;;;13.70;99.90;;;;;;12548716;28;20300;-39
2023/05/20 20:53:11;;;;;;;6.80;3.58;;;13.80;99.90;;;;;;12508715;28;20060;-38
2023/05/20 20:59:14;;;;;;;5.88;3.40;;;13.70;99.90;;;;;;12530557;28;20519;-37
2023/05/20 21:05:20;;;;;;;5.30;3.70;;;13.60;99.90;;;;;;12554008;28;20076;-37
2023/05/20 21:11:26;;;;;;;4.40;3.20;;;13.50;99.90;;;;;;12537565;28;20069;-38
2023/05/20 21:17:31;;;;;;;6.10;3.67;;;13.60;99.90;;;;;;12510350;28;20195;-38
2023/05/20 21:23:35;;;;;;;7.83;3.40;;;13.50;99.90;;;;;;12570317;28;20044;-37
2023/05/20 21:29:38;;;;;;;8.57;3.60;;;13.50;99.90;;;;;;12530032;28;20049;-37
2023/05/20 21:35:41;;;;;;;6.45;3.58;;;13.60;99.90;;;;;;12524517;28;20326;-38
2023/05/20 21:41:44;;;;;;;8.57;4.03;;;13.70;99.90;;;;;;12551642;28;20057;-38
2023/05/20 21:47:47;;;;;;;6.20;3.85;;;13.60;99.90;;;;;;12533725;28;20135;-39
2023/05/20 21:53:57;;;;;;;9.50;3.88;;;13.50;99.90;;;;;;12530846;28;20056;-40
2023/05/20 22:00:01;;;;;;;5.82;4.18;;;13.50;99.90;;;;;;12517538;28;20064;-38
2023/05/20 22:06:04;;;;;;;6.13;3.90;;;13.40;99.90;;;;;;12530450;28;20493;-37
2023/05/20 22:12:09;;;;;;;6.88;3.83;;;13.30;99.90;;;;;;12556462;28;20263;-38
2023/05/20 22:18:13;;;;;;;7.70;3.92;;;13.30;99.90;;;;;;12514987;28;20044;-37
2023/05/20 22:24:16;;;;;;;6.53;3.80;;;13.30;99.90;;;;;;12522783;28;20083;-37
2023/05/20 22:30:19;;;;;;;5.07;3.47;;;13.40;99.90;;;;;;12553897;28;20393;-37
2023/05/20 22:36:23;;;;;;;6.13;3.80;;;13.50;99.90;;;;;;12532276;28;20120;-39
2023/05/20 22:42:26;;;;;;;6.88;3.50;;;13.40;99.90;;;;;;12549681;28;20053;-39
2023/05/20 22:48:29;;;;;;;9.32;4.00;;;13.30;99.90;;;;;;12537765;28;20102;-40
2023/05/20 22:54:33;;;;;;;8.80;3.88;;;13.20;99.90;;;;;;12520431;28;20090;-38
2023/05/20 23:00:49;;;;;;;5.53;3.88;;;13.30;99.90;;;;;;12519249;28;20061;-39
2023/05/20 23:06:52;;;;;;;7.53;4.50;;;13.30;99.90;;;;;;12547032;28;20560;-40
2023/05/20 23:12:55;;;;;;;7.15;4.60;;;13.40;99.90;;;;;;12544140;28;20053;-38
2023/05/20 23:18:59;;;;;;;6.10;4.47;;;13.40;99.90;;;;;;12567060;28;20055;-38
2023/05/20 23:25:02;;;;;;;7.95;4.28;;;13.40;99.90;;;;;;12549951;28;20095;-39
2023/05/20 23:31:05;;;;;;;6.10;4.30;;;13.40;99.90;;;;;;12530795;28;20068;-39
2023/05/20 23:37:09;;;;;;;7.88;4.88;;;13.40;99.90;;;;;;12527024;28;20425;-39
2023/05/20 23:43:11;;;;;;;7.82;4.68;;;13.30;99.90;;;;;;12542142;28;20069;-40
2023/05/20 23:49:17;;;;;;;7.30;4.50;;;13.20;99.90;;;;;;12537890;28;20052;-40
2023/05/20 23:55:21;;;;;;;7.40;5.13;;;13.10;99.90;;;;;;12546534;28;20109;-39
